This is the latest recevied weather packets stored in our database for station/object OE-11204. If no packets are shown the sender has not sent any weather packets the latest 10 day(s).
| Time | Temp. | Humidity | Pressure | Rain* | Wind** | Luminosity | Snow |
|---|---|---|---|---|---|---|---|
| 1788073514 | 17.78° C | 86% | 1018.3 hPa | 0 mm | - | 334 W/m² | - |
| 1788072914 | 17.78° C | 84% | 1018.2 hPa | 0 mm | - | 309 W/m² | - |
| 1788072088 | 17.78° C | 87% | 1018.4 hPa | 0 mm | - | 285 W/m² | - |
| 1788071715 | 17.22° C | 90% | 1018.6 hPa | 0 mm | - | 179 W/m² | - |
| 1788071115 | 17.22° C | 91% | 1018.6 hPa | 0 mm | - | 210 W/m² | - |
| 1788070288 | 16.67° C | 93% | 1018.7 hPa | 0 mm | - | 142 W/m² | - |
| 1788069914 | 16.11° C | 94% | 1018.9 hPa | 0 mm | - | 124 W/m² | - |
| 1788069315 | 15.56° C | 96% | 1019 hPa | 0 mm | - | 56 W/m² | - |
| 1788068488 | 15.56° C | 96% | 1019 hPa | 0 mm | - | 43 W/m² | - |
| 1788068115 | 15.56° C | 96% | 1018.9 hPa | 0 mm | - | 25 W/m² | - |
| 1788067515 | 15.56° C | 96% | 1018.8 hPa | 0 mm | - | 19 W/m² | - |
| 1788066688 | 15.56° C | 96% | 1018.8 hPa | 0 mm | - | 12 W/m² | - |
| 1788066314 | 15.56° C | 96% | 1018.6 hPa | 0 mm | - | 12 W/m² | - |
| 1788065714 | 15.56° C | 96% | 1018.7 hPa | 0 mm | - | 6 W/m² | - |
| 1788064887 | 15.56° C | 95% | 1018.5 hPa | 0 mm | - | 0 W/m² | - |
| 1788064514 | 15.56° C | 95% | 1018.5 hPa | 0 mm | - | 0 W/m² | - |
| 1788063914 | 15.56° C | 96% | 1018.6 hPa | 0 mm | - | 0 W/m² | - |
| 1788063087 | 16.11° C | 95% | 1018.5 hPa | 0 mm | - | 0 W/m² | - |
| 1788062714 | 16.11° C | 94% | 1018.4 hPa | 0 mm | - | 0 W/m² | - |
| 1788062114 | 16.11° C | 94% | 1018.5 hPa | 0 mm | - | 0 W/m² | - |
| 1788061515 | 16.67° C | 94% | 1018.4 hPa | 0 mm | - | 0 W/m² | - |
| 1788060914 | 16.67° C | 94% | 1018.4 hPa | 0 mm | - | 0 W/m² | - |
| 1788060314 | 16.67° C | 93% | 1018.4 hPa | 0 mm | - | 0 W/m² | - |
| 1788059488 | 16.67° C | 94% | 1018.3 hPa | 0 mm | - | 0 W/m² | - |
| 1788059115 | 16.67° C | 94% | 1018.3 hPa | 0.25 mm | - | 0 W/m² | - |
* Rain latest hour (hover to see other rain measurements)
** Current wind speed in m/s (hover to see current wind gust speed)